Time;durP1;ratioP1;P1;durP2;ratioP2;P2;SDS_P1;SDS_P2;PMS_P1;PMS_P2;Temp;Humidity;BMP_temperature;BMP_pressure;BME280_temperature;BME280_humidity;BME280_pressure;Samples;Min_cycle;Max_cycle;Signal;HPM_P1;HPM_P2
2023/02/12 00:01:32;;;;;;;16.77;12.85;;;;;;;7.59;74.70;101712.59;5034844;27;97367;-76
2023/02/12 00:03:57;;;;;;;14.68;11.80;;;;;;;7.62;74.52;101724.75;5047214;27;97318;-75
2023/02/12 00:06:23;;;;;;;20.55;13.55;;;;;;;7.63;74.71;101731.75;5041123;27;101604;-76
2023/02/12 00:08:50;;;;;;;18.35;12.70;;;;;;;7.63;74.65;101729.13;5038659;27;96737;-76
2023/02/12 00:11:19;;;;;;;15.70;12.07;;;;;;;7.62;74.55;101728.25;5047607;27;96840;-77
2023/02/12 00:13:45;;;;;;;21.05;14.13;;;;;;;7.54;74.51;101710.84;5041691;27;97567;-76
2023/02/12 00:16:16;;;;;;;18.13;12.50;;;;;;;7.61;74.83;101731.72;5064513;27;97149;-76
2023/02/12 00:18:42;;;;;;;18.17;12.70;;;;;;;7.53;74.73;101720.38;5064986;27;97079;-76
2023/02/12 00:21:08;;;;;;;18.08;14.35;;;;;;;7.62;74.66;101733.50;5035133;27;97118;-77
2023/02/12 00:23:35;;;;;;;18.17;12.30;;;;;;;7.63;74.77;101748.28;5038109;27;101599;-75
2023/02/12 00:26:04;;;;;;;19.10;12.98;;;;;;;7.63;74.49;101739.59;5014657;27;102017;-75
2023/02/12 00:28:30;;;;;;;17.50;12.52;;;;;;;7.53;74.87;101722.13;5008757;27;97148;-76
2023/02/12 00:30:55;;;;;;;17.80;12.68;;;;;;;7.61;74.91;101743.94;5017886;27;97625;-76
2023/02/12 00:33:21;;;;;;;15.90;12.13;;;;;;;7.64;74.87;101743.94;5006428;27;101270;-76
2023/02/12 00:35:55;;;;;;;17.83;13.35;;;;;;;7.66;74.62;101756.13;5007633;28;98121;-76
2023/02/12 00:38:20;;;;;;;17.75;12.88;;;;;;;7.65;75.04;101749.16;5014188;27;97429;-76
2023/02/12 00:40:46;;;;;;;18.63;12.73;;;;;;;7.67;74.56;101752.63;4999833;28;97550;-76
2023/02/12 00:43:11;;;;;;;18.25;12.57;;;;;;;7.68;74.96;101750.91;4982851;27;101535;-76
2023/02/12 00:45:37;;;;;;;18.95;13.63;;;;;;;7.70;75.14;101749.16;4988817;27;101615;-76
2023/02/12 00:48:03;;;;;;;19.00;12.50;;;;;;;7.58;74.95;101739.56;4999117;27;97162;-75
2023/02/12 00:50:29;;;;;;;16.60;11.90;;;;;;;7.67;74.80;101751.78;4983746;28;97526;-75
2023/02/12 00:52:54;;;;;;;15.52;11.77;;;;;;;7.69;74.93;101756.13;5001486;27;101238;-76
2023/02/12 00:55:20;;;;;;;17.13;11.75;;;;;;;7.68;74.94;101757.00;5012568;27;101383;-75
2023/02/12 00:57:45;;;;;;;18.98;11.77;;;;;;;7.68;74.42;101757.00;5009878;27;97351;-76
2023/02/12 01:00:12;;;;;;;17.70;12.25;;;;;;;7.66;74.39;101755.25;5012392;27;97360;-76
2023/02/12 01:02:38;;;;;;;21.40;12.63;;;;;;;7.69;74.55;101757.88;5004916;27;98755;-76
2023/02/12 01:05:07;;;;;;;18.60;11.90;;;;;;;7.72;74.54;101758.75;5003144;27;101211;-76
2023/02/12 01:07:32;;;;;;;16.70;12.55;;;;;;;7.70;74.67;101767.44;5005034;27;96912;-76
2023/02/12 01:09:58;;;;;;;17.42;12.32;;;;;;;7.59;74.63;101745.66;5017896;28;97104;-76
2023/02/12 01:12:24;;;;;;;15.50;11.40;;;;;;;7.71;74.54;101774.44;5001597;27;100747;-75
2023/02/12 01:14:49;;;;;;;17.50;11.50;;;;;;;7.71;74.57;101769.22;5000674;28;100832;-75
2023/02/12 01:17:15;;;;;;;15.85;12.02;;;;;;;7.66;74.97;101769.19;5006959;27;97182;-76
2023/02/12 01:19:43;;;;;;;16.15;12.05;;;;;;;7.68;74.93;101777.91;5010287;27;96929;-75
2023/02/12 01:22:08;;;;;;;18.80;12.88;;;;;;;7.67;74.58;101770.06;5030693;27;98022;-76
2023/02/12 01:24:34;;;;;;;17.65;12.25;;;;;;;7.69;74.40;101769.19;4997247;27;100970;-76
2023/02/12 01:27:00;;;;;;;14.55;10.48;;;;;;;7.71;74.54;101784.91;5027197;27;97248;-76
2023/02/12 01:29:27;;;;;;;17.50;11.95;;;;;;;7.69;74.77;101782.28;5017440;27;97325;-76
2023/02/12 01:31:52;;;;;;;18.05;12.18;;;;;;;7.68;74.83;101790.13;5005653;27;100852;-75
2023/02/12 01:34:18;;;;;;;17.83;11.65;;;;;;;7.57;74.43;101766.59;4998716;27;101144;-75
2023/02/12 01:36:43;;;;;;;16.77;11.10;;;;;;;7.68;74.35;101782.28;5012325;27;97091;-75
2023/02/12 01:39:10;;;;;;;14.98;11.10;;;;;;;7.71;74.42;101784.91;5022583;27;97251;-76
2023/02/12 01:41:41;;;;;;;21.98;12.85;;;;;;;7.59;74.57;101766.56;5020262;28;98717;-75
2023/02/12 01:44:18;;;;;;;18.17;11.90;;;;;;;7.72;74.54;101797.09;5000604;28;100804;-75
2023/02/12 01:46:46;;;;;;;16.38;11.50;;;;;;;7.68;74.35;101787.50;5001208;28;97092;-75
2023/02/12 01:49:36;;;;;;;19.48;11.45;;;;;;;7.68;74.21;101793.59;5005816;28;97338;-76
2023/02/12 01:52:19;;;;;;;17.88;12.13;;;;;;;7.59;74.79;101783.16;5006688;27;100914;-76
2023/02/12 01:54:47;;;;;;;18.20;11.75;;;;;;;7.66;74.58;101815.38;5015031;28;101790;-76
2023/02/12 01:57:13;;;;;;;16.60;11.40;;;;;;;7.58;74.70;101804.03;5030473;27;96747;-76
2023/02/12 01:59:41;;;;;;;17.52;11.60;;;;;;;7.69;74.33;101825.84;5011867;28;96919;-75
2023/02/12 02:02:06;;;;;;;17.73;10.88;;;;;;;7.57;74.48;101805.78;5015637;27;101005;-75
2023/02/12 02:04:39;;;;;;;18.13;10.80;;;;;;;7.61;74.52;101820.59;5028682;27;97339;-76
2023/02/12 02:07:05;;;;;;;18.83;11.43;;;;;;;7.66;74.73;101823.22;5000760;27;97474;-75
2023/02/12 02:09:34;;;;;;;16.40;10.90;;;;;;;7.70;74.23;101831.06;5002047;28;98247;-76
2023/02/12 02:14:45;;;;;;;16.38;11.23;;;;;;;7.74;74.21;101825.81;5017042;28;98576;-76
2023/02/12 02:17:16;;;;;;;17.05;12.00;;;;;;;7.78;74.36;101836.31;5028575;27;97405;-75
2023/02/12 02:20:10;;;;;;;17.45;11.02;;;;;;;7.78;74.52;101836.31;5032871;27;96828;-76
2023/02/12 02:22:48;;;;;;;18.35;11.35;;;;;;;7.77;73.91;101829.34;5032488;27;101650;-76
2023/02/12 02:25:35;;;;;;;17.90;10.68;;;;;;;7.78;74.64;101831.06;5025135;27;100875;-76
2023/02/12 02:28:02;;;;;;;15.75;10.57;;;;;;;7.78;74.72;101838.91;5006277;27;97247;-76
2023/02/12 02:30:36;;;;;;;19.05;11.13;;;;;;;7.77;74.49;101831.97;5021449;28;97073;-76
2023/02/12 02:33:18;;;;;;;19.73;11.32;;;;;;;7.78;74.51;101840.66;5009260;28;100993;-75
2023/02/12 02:36:21;;;;;;;17.85;11.25;;;;;;;7.78;74.45;101841.53;5003563;27;101185;-76
2023/02/12 02:38:56;;;;;;;17.08;10.82;;;;;;;7.69;73.98;101831.06;5045404;27;97284;-76
2023/02/12 02:41:27;;;;;;;16.45;10.02;;;;;;;7.80;74.41;101849.38;5004081;27;97130;-76
2023/02/12 02:43:53;;;;;;;21.02;11.32;;;;;;;7.58;74.46;101812.75;5002755;28;101793;-76
2023/02/12 02:46:28;;;;;;;17.08;10.60;;;;;;;7.80;74.13;101855.50;4998699;27;100948;-76
2023/02/12 02:49:05;;;;;;;23.23;12.43;;;;;;;7.71;74.58;101838.03;4999721;27;96753;-76
2023/02/12 02:51:40;;;;;;;21.13;11.07;;;;;;;7.80;74.16;101863.34;4996463;27;97264;-75
2023/02/12 02:54:23;;;;;;;17.70;10.63;;;;;;;7.69;74.00;101845.00;5011065;27;101156;-75
2023/02/12 02:56:52;;;;;;;16.52;10.82;;;;;;;7.80;74.62;101859.84;5016609;27;101049;-75
2023/02/12 02:59:30;;;;;;;16.75;10.60;;;;;;;7.84;74.06;101861.59;5011444;27;97213;-77
2023/02/12 03:02:05;;;;;;;18.73;10.40;;;;;;;7.79;74.56;101861.56;4982288;28;97820;-75
2023/02/12 03:04:38;;;;;;;17.10;10.45;;;;;;;7.80;74.19;101870.31;5020243;28;101282;-76
2023/02/12 03:07:10;;;;;;;14.00;8.85;;;;;;;7.82;74.54;101869.41;5026191;27;101391;-75
2023/02/12 03:09:39;;;;;;;16.80;9.63;;;;;;;7.81;74.28;101867.69;4992468;27;96762;-75
2023/02/12 03:12:18;;;;;;;13.43;9.45;;;;;;;7.81;74.43;101869.44;5023917;27;96951;-76
2023/02/12 03:14:53;;;;;;;14.93;9.48;;;;;;;7.78;74.34;101861.56;5009925;27;101492;-75
2023/02/12 03:17:32;;;;;;;14.70;10.00;;;;;;;7.86;74.14;101889.47;5008558;28;101174;-76
2023/02/12 03:20:05;;;;;;;17.83;9.50;;;;;;;7.87;74.31;101883.38;4999494;27;96814;-76
2023/02/12 03:22:33;;;;;;;15.07;9.48;;;;;;;7.87;74.21;101891.22;4995615;28;97529;-76
2023/02/12 03:25:13;;;;;;;19.35;10.25;;;;;;;7.87;73.89;101895.59;5014129;27;100932;-76
2023/02/12 03:28:28;;;;;;;17.45;9.98;;;;;;;7.90;74.43;101893.84;5052678;27;99071;-76
2023/02/12 03:31:17;;;;;;;12.18;8.82;;;;;;;7.92;74.27;101904.31;5052535;27;97222;-76
2023/02/12 03:34:01;;;;;;;16.25;9.77;;;;;;;7.79;74.17;101881.63;5046529;27;96872;-76
2023/02/12 03:36:51;;;;;;;16.00;9.38;;;;;;;7.89;74.19;101913.03;5043839;27;101150;-76
2023/02/12 03:39:33;;;;;;;16.10;9.85;;;;;;;7.89;74.12;101920.00;5038516;27;98687;-76
2023/02/12 03:42:01;;;;;;;;;;;;;;;7.88;74.20;101924.38;5064008;27;96801;-76
2023/02/12 03:44:51;;;;;;;16.65;9.40;;;;;;;7.87;74.48;101913.88;5069398;27;97032;-76
2023/02/12 03:47:24;;;;;;;16.30;9.23;;;;;;;7.91;73.87;101926.09;5022559;27;101803;-76
2023/02/12 03:49:59;;;;;;;19.05;9.77;;;;;;;7.92;74.36;101936.56;5050675;27;101503;-76
2023/02/12 03:52:24;;;;;;;15.77;8.73;;;;;;;7.94;74.10;101936.53;5064424;27;97653;-75
2023/02/12 03:54:51;;;;;;;13.75;8.52;;;;;;;7.94;74.00;101933.94;5051194;27;97377;-75
2023/02/12 03:57:19;;;;;;;14.40;8.50;;;;;;;7.96;73.97;101936.56;5034785;27;100491;-76
2023/02/12 03:59:45;;;;;;;16.02;8.68;;;;;;;7.93;74.02;101940.91;5031787;27;101543;-76
2023/02/12 04:02:11;;;;;;;16.73;8.95;;;;;;;7.96;73.68;101944.41;5040875;27;97046;-75
2023/02/12 04:04:37;;;;;;;14.55;8.68;;;;;;;7.93;73.58;101942.66;5032107;27;97474;-76
2023/02/12 04:07:02;;;;;;;16.98;8.60;;;;;;;7.91;73.88;101950.50;5034701;27;101011;-76
2023/02/12 04:09:30;;;;;;;16.30;8.93;;;;;;;7.89;73.72;101948.75;5034187;27;101262;-76
2023/02/12 04:12:44;;;;;;;15.20;8.02;;;;;;;7.93;73.93;101953.13;5046718;27;96930;-76
2023/02/12 04:15:31;;;;;;;17.33;8.38;;;;;;;7.92;73.78;101961.84;5036610;27;96852;-76
2023/02/12 04:18:19;;;;;;;16.45;8.10;;;;;;;7.93;73.66;101960.97;5061099;27;98432;-75
2023/02/12 04:21:04;;;;;;;19.98;8.98;;;;;;;7.90;73.57;101959.22;5048131;27;101518;-76
2023/02/12 04:23:49;;;;;;;16.48;7.97;;;;;;;7.85;73.79;101949.59;5049280;27;97385;-76
2023/02/12 04:26:17;;;;;;;15.48;8.02;;;;;;;7.93;73.58;101967.06;5032080;27;97123;-75
2023/02/12 04:29:02;;;;;;;21.80;8.85;;;;;;;7.92;73.69;101961.84;5046388;27;102238;-75
2023/02/12 04:31:37;;;;;;;20.02;8.43;;;;;;;7.90;73.67;101966.19;5044865;27;101576;-75
2023/02/12 04:34:51;;;;;;;20.35;8.20;;;;;;;7.94;73.79;101975.78;5055881;27;96773;-76
2023/02/12 04:37:44;;;;;;;19.70;8.63;;;;;;;7.84;73.63;101966.16;5051321;27;100192;-76
2023/02/12 04:40:15;;;;;;;17.60;8.15;;;;;;;7.93;73.50;101981.88;5041836;27;97528;-76
2023/02/12 04:42:51;;;;;;;18.85;8.80;;;;;;;7.79;73.79;101955.69;5038389;27;101511;-75
2023/02/12 04:45:23;;;;;;;24.30;8.70;;;;;;;7.93;73.55;101989.72;5052208;27;96983;-76
2023/02/12 04:47:49;;;;;;;16.40;7.82;;;;;;;7.75;73.61;101960.91;5049142;27;97044;-76
2023/02/12 04:50:15;;;;;;;18.13;7.57;;;;;;;7.84;73.96;101979.25;5025894;27;100211;-76
2023/02/12 04:52:40;;;;;;;20.52;8.63;;;;;;;7.90;73.72;101987.97;5050971;27;98004;-75
2023/02/12 04:55:06;;;;;;;21.83;8.77;;;;;;;7.90;73.90;101990.59;5049648;27;97257;-75
2023/02/12 04:57:31;;;;;;;20.02;8.63;;;;;;;7.94;73.33;101996.69;5031926;27;96925;-76
2023/02/12 04:59:57;;;;;;;24.15;8.13;;;;;;;7.94;73.39;101999.31;5047386;27;101857;-75
2023/02/12 05:02:23;;;;;;;18.85;7.90;;;;;;;7.94;73.68;101997.59;5047653;27;101305;-77
2023/02/12 05:04:49;;;;;;;22.13;7.97;;;;;;;7.84;73.38;101987.94;5051297;27;96771;-76
2023/02/12 05:07:15;;;;;;;22.95;8.70;;;;;;;7.84;73.38;101984.47;5052348;27;97296;-75
2023/02/12 05:09:40;;;;;;;24.23;8.75;;;;;;;7.97;73.56;102006.28;5050972;27;101876;-76
2023/02/12 05:12:06;;;;;;;20.60;8.65;;;;;;;7.88;73.32;101996.69;5054853;27;98507;-76
2023/02/12 05:14:32;;;;;;;20.80;8.45;;;;;;;7.98;73.42;102011.53;5054385;27;97232;-76
2023/02/12 05:16:57;;;;;;;21.17;7.78;;;;;;;7.94;73.42;102013.28;5038536;27;97420;-76
2023/02/12 05:19:23;;;;;;;21.85;8.13;;;;;;;7.90;73.14;102008.88;5050833;27;98014;-77
2023/02/12 05:21:49;;;;;;;20.48;7.70;;;;;;;7.96;73.11;102015.88;5052750;27;102121;-76
2023/02/12 05:24:15;;;;;;;18.15;8.40;;;;;;;7.96;73.39;102018.50;5051763;27;97419;-77
2023/02/12 05:26:41;;;;;;;24.85;9.43;;;;;;;7.94;72.96;102018.50;5068912;27;97619;-76
2023/02/12 05:29:06;;;;;;;21.63;8.27;;;;;;;7.97;73.27;102027.22;5048575;27;101225;-76
2023/02/12 05:31:32;;;;;;;21.50;8.65;;;;;;;7.86;73.34;102008.88;5039943;27;99993;-75
2023/02/12 05:33:57;;;;;;;24.52;9.00;;;;;;;7.95;73.37;102032.44;5034985;27;97235;-76
2023/02/12 05:36:23;;;;;;;24.30;9.77;;;;;;;7.98;73.43;102039.44;5065675;27;96863;-77
2023/02/12 05:38:50;;;;;;;25.95;8.80;;;;;;;7.86;73.13;102021.97;5068986;27;98137;-76
2023/02/12 05:41:21;;;;;;;20.73;8.68;;;;;;;7.98;72.94;102037.69;5037318;27;100618;-75
2023/02/12 05:43:48;;;;;;;19.42;8.90;;;;;;;7.85;73.11;102020.19;5035016;27;99713;-76
2023/02/12 05:46:14;;;;;;;23.65;8.45;;;;;;;7.98;73.27;102042.06;5037554;27;96899;-76
2023/02/12 05:48:40;;;;;;;24.45;8.88;;;;;;;7.99;72.98;102047.28;5064823;27;98000;-77
2023/02/12 05:51:10;;;;;;;22.63;9.07;;;;;;;8.00;73.30;102050.75;5052801;27;101452;-76
2023/02/12 05:53:36;;;;;;;20.45;9.02;;;;;;;7.98;72.89;102053.38;5041366;27;97187;-75
2023/02/12 05:56:11;;;;;;;19.58;8.02;;;;;;;8.00;72.97;102061.22;5054941;27;97279;-75
2023/02/12 05:58:37;;;;;;;22.52;8.02;;;;;;;7.89;72.76;102042.88;5064304;27;97613;-76
2023/02/12 06:01:08;;;;;;;23.30;8.90;;;;;;;8.00;72.52;102069.97;5040750;27;97541;-76
2023/02/12 06:03:34;;;;;;;21.65;10.43;;;;;;;7.97;72.82;102061.22;5026390;27;98219;-76
2023/02/12 06:05:59;;;;;;;25.02;8.40;;;;;;;7.99;72.84;102076.03;5044071;27;97103;-75
2023/02/12 06:08:25;;;;;;;24.27;8.30;;;;;;;8.03;72.93;102076.94;5049133;27;97925;-77
2023/02/12 06:10:50;;;;;;;22.60;8.60;;;;;;;8.04;72.96;102089.16;5054355;27;98189;-75
2023/02/12 06:13:16;;;;;;;19.13;8.43;;;;;;;8.01;72.80;102086.53;5037557;27;98512;-76
2023/02/12 06:15:42;;;;;;;20.67;8.10;;;;;;;8.00;72.94;102092.59;5051989;27;97214;-75
2023/02/12 06:18:07;;;;;;;23.15;8.55;;;;;;;8.02;72.79;102103.97;5035004;27;101165;-75
2023/02/12 06:20:33;;;;;;;27.95;10.38;;;;;;;8.04;72.64;102108.34;5065320;27;97468;-75
2023/02/12 06:22:58;;;;;;;24.92;10.70;;;;;;;8.00;72.67;102108.28;5045238;27;97124;-77
2023/02/12 06:25:24;;;;;;;25.50;10.45;;;;;;;8.02;72.57;102106.56;5033844;27;97133;-77
2023/02/12 06:27:49;;;;;;;24.42;10.63;;;;;;;8.02;72.71;102125.75;5033577;27;101280;-75
2023/02/12 06:30:15;;;;;;;20.23;9.93;;;;;;;8.04;72.79;102115.31;5048615;27;101139;-77
2023/02/12 06:32:40;;;;;;;27.17;11.32;;;;;;;8.08;72.58;102124.91;5036967;27;97268;-76
2023/02/12 06:35:07;;;;;;;25.00;9.23;;;;;;;8.06;72.45;102127.53;5027866;27;97241;-75
2023/02/12 06:37:35;;;;;;;19.75;8.63;;;;;;;8.05;72.47;102128.38;5048959;27;101643;-75
2023/02/12 06:40:01;;;;;;;20.58;8.77;;;;;;;8.08;72.34;102140.59;5047517;27;97481;-77
2023/02/12 06:42:27;;;;;;;24.73;9.63;;;;;;;8.10;72.52;102149.34;5050179;27;97069;-76
2023/02/12 06:44:52;;;;;;;24.42;9.13;;;;;;;7.99;72.43;102133.59;5051351;27;96903;-75
2023/02/12 06:47:18;;;;;;;21.90;8.30;;;;;;;8.11;72.39;102164.16;5033751;27;101570;-75
2023/02/12 06:49:43;;;;;;;23.02;9.45;;;;;;;7.98;72.27;102137.06;5048145;27;97632;-76
2023/02/12 06:52:09;;;;;;;23.60;9.02;;;;;;;8.08;72.05;102158.91;5052068;27;96774;-76
2023/02/12 06:54:34;;;;;;;22.77;7.95;;;;;;;8.11;72.51;102165.03;5049183;27;96833;-76
2023/02/12 06:57:00;;;;;;;23.85;8.90;;;;;;;8.10;72.31;102157.19;5067991;27;98138;-76
2023/02/12 06:59:25;;;;;;;22.02;8.52;;;;;;;8.12;72.27;102166.81;5067449;27;98062;-77
2023/02/12 07:01:51;;;;;;;26.15;9.40;;;;;;;8.16;72.13;102170.31;5051505;27;97297;-76
2023/02/12 07:04:16;;;;;;;20.95;7.97;;;;;;;8.11;72.29;102159.78;5063222;27;97920;-76
2023/02/12 07:06:42;;;;;;;18.40;8.73;;;;;;;8.10;71.95;102151.97;5056875;27;101313;-76
2023/02/12 07:09:08;;;;;;;25.58;9.23;;;;;;;8.21;72.05;102173.81;5051203;27;101365;-77
2023/02/12 07:11:34;;;;;;;22.20;9.15;;;;;;;8.17;72.12;102179.88;5050842;27;96733;-76
2023/02/12 07:14:00;;;;;;;24.55;8.82;;;;;;;8.20;71.49;102179.91;5052690;27;97492;-76
2023/02/12 07:16:26;;;;;;;21.77;8.60;;;;;;;8.23;71.91;102189.50;5067223;27;97436;-77
2023/02/12 07:18:51;;;;;;;21.90;9.05;;;;;;;8.20;71.47;102181.66;5050655;27;101295;-76
2023/02/12 07:21:17;;;;;;;23.45;9.18;;;;;;;8.23;71.48;102192.13;5051004;27;96947;-77
2023/02/12 07:23:48;;;;;;;29.10;9.50;;;;;;;8.24;71.60;102197.38;5045414;27;98448;-76
2023/02/12 07:26:14;;;;;;;24.10;9.10;;;;;;;8.25;71.77;102199.13;5050734;27;101043;-77
2023/02/12 07:28:40;;;;;;;21.17;8.90;;;;;;;8.24;71.36;102207.84;5063655;27;97536;-77
2023/02/12 07:31:14;;;;;;;22.38;8.55;;;;;;;8.19;71.35;102199.09;5033177;27;98155;-76
2023/02/12 07:33:40;;;;;;;27.67;8.90;;;;;;;8.25;71.37;102200.88;5050324;27;97010;-76
2023/02/12 07:36:08;;;;;;;22.23;8.32;;;;;;;8.26;71.42;102206.13;5049638;27;97543;-77
2023/02/12 07:38:38;;;;;;;25.73;8.95;;;;;;;8.32;71.00;102210.47;5050807;27;98183;-77
2023/02/12 07:41:14;;;;;;;25.77;8.80;;;;;;;8.34;70.85;102212.25;5048537;27;97164;-76
2023/02/12 07:43:45;;;;;;;22.58;9.15;;;;;;;8.14;70.64;102172.91;5068246;27;97431;-77
2023/02/12 07:46:25;;;;;;;18.83;9.45;;;;;;;8.36;70.66;102209.66;5050356;27;102392;-76
2023/02/12 07:48:52;;;;;;;19.55;8.90;;;;;;;8.38;71.06;102221.00;5051344;27;97832;-76
2023/02/12 07:51:18;;;;;;;19.33;8.80;;;;;;;8.37;70.96;102214.88;5067275;27;97152;-76
2023/02/12 07:53:44;;;;;;;24.30;9.13;;;;;;;8.35;70.83;102216.63;5050694;27;97189;-76
2023/02/12 07:56:12;;;;;;;26.55;9.13;;;;;;;8.35;70.38;102213.16;5047021;27;101544;-77
2023/02/12 07:58:39;;;;;;;23.88;9.18;;;;;;;8.39;70.99;102221.03;5066477;27;97347;-76
2023/02/12 08:01:17;;;;;;;26.77;9.52;;;;;;;8.39;70.35;102230.63;5048587;27;97294;-76
2023/02/12 08:03:43;;;;;;;27.10;9.25;;;;;;;8.33;70.65;102220.09;5046810;27;98154;-76
2023/02/12 08:06:21;;;;;;;24.30;8.13;;;;;;;8.39;70.69;102233.25;5065247;27;97426;-76
2023/02/12 08:08:49;;;;;;;29.73;8.73;;;;;;;8.41;70.39;102238.47;5064319;27;97241;-77
2023/02/12 08:11:15;;;;;;;28.42;8.93;;;;;;;8.42;70.49;102243.75;5067378;27;96764;-78
2023/02/12 08:13:41;;;;;;;25.63;8.90;;;;;;;8.41;70.11;102242.00;5046871;27;97412;-78
2023/02/12 08:16:15;;;;;;;26.35;8.50;;;;;;;8.44;70.17;102247.25;5041802;27;98050;-76
2023/02/12 08:18:41;;;;;;;24.42;9.00;;;;;;;8.43;70.00;102242.84;5054576;27;98435;-76
2023/02/12 08:21:09;;;;;;;25.98;9.23;;;;;;;8.48;70.15;102243.75;5044412;27;97092;-76
2023/02/12 08:23:35;;;;;;;27.20;9.10;;;;;;;8.36;70.09;102221.00;5028705;27;97398;-77
2023/02/12 08:26:12;;;;;;;29.33;10.43;;;;;;;8.49;70.00;102242.00;5047078;27;97416;-76
2023/02/12 08:28:42;;;;;;;20.35;8.25;;;;;;;8.53;70.22;102243.81;5043998;27;101941;-76
2023/02/12 08:31:18;;;;;;;31.67;10.43;;;;;;;8.46;70.07;102226.31;5032575;27;97096;-76
2023/02/12 08:33:45;;;;;;;31.58;10.38;;;;;;;8.53;69.89;102242.06;5057609;27;97158;-76
2023/02/12 08:36:14;;;;;;;25.70;10.38;;;;;;;8.53;69.74;102243.81;5047410;27;101254;-78
2023/02/12 08:38:40;;;;;;;28.90;10.18;;;;;;;8.51;69.75;102243.78;5036631;27;101497;-77
2023/02/12 08:41:12;;;;;;;35.17;11.45;;;;;;;8.45;69.50;102237.66;5049609;27;97200;-77
2023/02/12 08:43:39;;;;;;;19.45;8.98;;;;;;;8.54;69.74;102250.78;5045727;27;96787;-84
2023/02/12 08:46:13;;;;;;;28.17;10.18;;;;;;;8.57;69.90;102251.66;5030224;27;99894;-84
2023/02/12 08:48:40;;;;;;;25.38;9.63;;;;;;;8.63;69.87;102252.56;5027593;27;101277;-83
2023/02/12 08:51:17;;;;;;;26.33;10.40;;;;;;;8.56;69.27;102243.81;5043963;27;97482;-84
2023/02/12 08:53:45;;;;;;;31.55;10.95;;;;;;;8.57;69.32;102229.84;5047213;27;96673;-84
2023/02/12 08:56:13;;;;;;;25.55;11.38;;;;;;;8.66;69.31;102239.50;5044257;27;98299;-84
2023/02/12 08:58:38;;;;;;;25.40;10.43;;;;;;;8.74;69.43;102246.50;5046984;27;101398;-83
2023/02/12 09:01:11;;;;;;;25.92;9.80;;;;;;;8.81;68.97;102258.78;5051477;27;96819;-84
2023/02/12 09:03:37;;;;;;;26.00;10.15;;;;;;;8.67;68.75;102221.19;5066087;27;97512;-83
2023/02/12 09:06:03;;;;;;;26.70;9.82;;;;;;;8.88;68.61;102258.78;5053082;27;98513;-84
2023/02/12 09:08:29;;;;;;;31.92;10.68;;;;;;;8.93;68.31;102267.53;5036285;27;101369;-83
2023/02/12 09:10:54;;;;;;;24.05;9.30;;;;;;;8.97;68.40;102270.16;5050095;27;97483;-84
2023/02/12 09:13:20;;;;;;;33.13;10.73;;;;;;;8.82;67.87;102251.78;5052519;27;97336;-84
2023/02/12 09:15:46;;;;;;;28.73;9.52;;;;;;;8.99;68.24;102283.28;5052219;27;101507;-79
2023/02/12 09:18:12;;;;;;;28.50;10.27;;;;;;;8.93;67.97;102262.28;5052643;27;101111;-78
2023/02/12 09:20:41;;;;;;;24.50;10.07;;;;;;;9.05;68.29;102278.94;5045752;27;97172;-77
2023/02/12 09:23:07;;;;;;;27.63;10.18;;;;;;;9.10;67.72;102278.06;5034492;27;96957;-76
2023/02/12 09:25:33;;;;;;;24.45;9.75;;;;;;;9.02;67.88;102255.34;5032932;27;101383;-79
2023/02/12 09:28:00;;;;;;;32.78;9.90;;;;;;;9.25;67.67;102289.47;5037290;27;101407;-77
2023/02/12 09:30:26;;;;;;;30.10;10.70;;;;;;;9.33;67.67;102297.34;5035298;27;97329;-79
2023/02/12 09:32:52;;;;;;;29.42;11.18;;;;;;;9.27;67.32;102286.84;5048562;27;97178;-80
2023/02/12 09:35:18;;;;;;;24.00;10.43;;;;;;;9.42;67.66;102307.84;5031704;27;101680;-76
2023/02/12 09:37:44;;;;;;;25.05;9.93;;;;;;;9.42;67.12;102305.22;5037451;27;101564;-76
2023/02/12 09:40:24;;;;;;;29.35;11.25;;;;;;;9.30;67.52;102281.59;5066046;27;97335;-78
2023/02/12 09:43:28;;;;;;;24.33;10.27;;;;;;;9.45;67.04;102300.00;5051881;27;97529;-79
2023/02/12 09:46:04;;;;;;;27.73;10.10;;;;;;;9.57;67.11;102307.03;5064408;27;101405;-77
2023/02/12 09:48:36;;;;;;;25.55;10.50;;;;;;;9.73;66.56;102305.28;5070086;27;98011;-78
2023/02/12 09:51:06;;;;;;;23.40;10.00;;;;;;;9.77;67.04;102287.78;5052250;27;97220;-77
2023/02/12 09:53:35;;;;;;;34.15;11.10;;;;;;;10.02;66.89;102304.44;5035152;27;97266;-81
2023/02/12 09:56:01;;;;;;;23.35;10.07;;;;;;;10.05;66.29;102307.03;5034690;27;101963;-79
2023/02/12 09:58:48;;;;;;;29.25;11.32;;;;;;;10.00;65.67;102307.03;5047883;27;101450;-76
2023/02/12 10:01:16;;;;;;;26.17;10.13;;;;;;;10.08;66.26;102307.91;5037658;27;96912;-76
2023/02/12 10:03:43;;;;;;;25.73;9.32;;;;;;;10.25;66.33;102300.03;5064779;27;96933;-77
2023/02/12 10:06:15;;;;;;;26.33;10.70;;;;;;;10.46;65.88;102295.66;5034962;27;97389;-77
2023/02/12 10:09:08;;;;;;;24.40;9.52;;;;;;;10.62;65.50;102298.25;5031000;27;101065;-76
2023/02/12 10:11:58;;;;;;;22.42;8.82;;;;;;;10.85;64.37;102294.69;5047173;27;100281;-80
2023/02/12 10:14:49;;;;;;;25.80;10.15;;;;;;;11.06;63.75;102293.69;5052445;27;97253;-76
2023/02/12 10:17:35;;;;;;;26.63;9.48;;;;;;;11.22;62.55;102290.09;5062222;27;98390;-76
2023/02/12 10:20:27;;;;;;;27.33;10.40;;;;;;;11.27;62.40;102296.22;5040681;27;102024;-77
2023/02/12 10:23:23;;;;;;;27.80;11.02;;;;;;;11.32;62.42;102299.69;5035360;27;97164;-76
2023/02/12 10:25:53;;;;;;;27.35;10.40;;;;;;;11.29;61.87;102290.97;5067753;27;97281;-76
2023/02/12 10:28:25;;;;;;;25.85;10.40;;;;;;;11.17;61.97;102284.00;5021127;27;102413;-76
2023/02/12 10:30:53;;;;;;;24.90;9.25;;;;;;;11.13;62.20;102291.91;5041767;27;101486;-77
2023/02/12 10:33:50;;;;;;;21.17;8.73;;;;;;;11.08;62.38;102292.81;5044913;27;97265;-77
2023/02/12 10:36:45;;;;;;;22.45;8.82;;;;;;;11.23;62.02;102288.38;5050141;27;97658;-78
2023/02/12 10:39:13;;;;;;;19.67;8.38;;;;;;;11.33;61.24;102284.78;5030446;27;101774;-77
2023/02/12 10:41:46;;;;;;;17.33;7.35;;;;;;;11.28;61.83;102268.16;5057715;27;101111;-76
2023/02/12 10:44:12;;;;;;;16.00;7.35;;;;;;;11.45;61.46;102274.19;5031496;27;96746;-77
2023/02/12 10:46:37;;;;;;;28.60;8.77;;;;;;;11.55;61.05;102280.28;5059450;27;97459;-77
2023/02/12 10:49:05;;;;;;;21.85;8.63;;;;;;;11.48;60.75;102275.91;5066932;27;97560;-76
2023/02/12 10:51:43;;;;;;;23.25;9.32;;;;;;;11.55;60.87;102280.28;5039113;27;101425;-76
2023/02/12 10:54:42;;;;;;;20.83;7.50;;;;;;;11.69;60.81;102282.78;5050978;27;96845;-83
2023/02/12 10:57:13;;;;;;;21.73;8.27;;;;;;;11.86;60.37;102287.94;5060162;27;96955;-76
2023/02/12 10:59:41;;;;;;;17.67;8.13;;;;;;;11.76;59.62;102280.09;5035586;27;101638;-77
2023/02/12 11:02:28;;;;;;;22.88;8.45;;;;;;;11.74;59.76;102276.59;5049845;27;101308;-75
2023/02/12 11:04:55;;;;;;;19.45;7.60;;;;;;;11.77;59.64;102273.06;5047448;27;96766;-76
2023/02/12 11:07:21;;;;;;;20.58;7.40;;;;;;;11.71;59.62;102271.38;5049969;27;97322;-77
2023/02/12 11:09:48;;;;;;;17.17;7.05;;;;;;;11.58;59.61;102264.47;5048199;27;101096;-77
2023/02/12 11:12:34;;;;;;;17.15;7.82;;;;;;;11.30;58.81;102243.59;5038428;27;101083;-83
2023/02/12 11:15:14;;;;;;;17.80;7.63;;;;;;;11.42;59.24;102260.19;5062749;27;96666;-84
2023/02/12 11:17:42;;;;;;;16.70;8.07;;;;;;;11.45;59.37;102268.06;5040211;27;97741;-84
2023/02/12 11:20:17;;;;;;;19.00;8.98;;;;;;;11.44;59.69;102261.06;5040394;27;101468;-84
2023/02/12 11:23:29;;;;;;;21.40;8.38;;;;;;;11.27;59.31;102242.75;5048060;27;101332;-84
2023/02/12 11:26:18;;;;;;;19.13;7.97;;;;;;;11.39;58.82;102250.56;5053641;27;98334;-84
2023/02/12 11:29:02;;;;;;;15.15;7.50;;;;;;;11.42;58.44;102254.94;5066517;27;97858;-84
2023/02/12 11:31:30;;;;;;;21.10;9.00;;;;;;;11.34;58.86;102249.72;5028171;27;100383;-83
2023/02/12 11:34:11;;;;;;;18.98;7.20;;;;;;;11.47;58.84;102267.16;5030480;27;101679;-84
2023/02/12 11:36:43;;;;;;;16.75;6.75;;;;;;;11.44;58.75;102261.94;5028854;27;97252;-81
2023/02/12 11:39:25;;;;;;;17.38;6.95;;;;;;;11.40;58.66;102259.31;5047880;27;97110;-82
2023/02/12 11:41:56;;;;;;;16.33;7.10;;;;;;;11.28;58.54;102233.97;5068137;27;97930;-83